Time;durP1;ratioP1;P1;durP2;ratioP2;P2;SDS_P1;SDS_P2;PMS_P1;PMS_P2;Temp;Humidity;BMP_temperature;BMP_pressure;BME280_temperature;BME280_humidity;BME280_pressure;Samples;Min_cycle;Max_cycle;Signal;HPM_P1;HPM_P2
2023/03/03 09:12:49;;;;;;;24.27;6.38;;;17.50;80.40;;;;;;5095119;27;20561;-41
2023/03/03 09:15:15;;;;;;;19.23;6.00;;;17.50;82.00;;;;;;5077810;28;20115;-40
2023/03/03 09:17:43;;;;;;;20.50;6.50;;;17.60;82.40;;;;;;5070878;28;20370;-41
2023/03/03 09:20:09;;;;;;;28.15;7.25;;;17.80;82.20;;;;;;5072861;28;20352;-41
2023/03/03 09:22:36;;;;;;;24.50;6.95;;;18.00;82.10;;;;;;5080459;28;20048;-40
2023/03/03 09:25:03;;;;;;;23.13;6.40;;;18.20;81.80;;;;;;5069682;28;20037;-40
2023/03/03 09:27:30;;;;;;;21.60;6.72;;;18.40;81.40;;;;;;5072052;28;20055;-40
2023/03/03 09:29:56;;;;;;;24.98;6.68;;;18.50;81.20;;;;;;5075203;28;20466;-38
2023/03/03 09:32:23;;;;;;;21.65;6.30;;;18.70;80.90;;;;;;5090077;28;20512;-38
2023/03/03 09:34:50;;;;;;;19.35;6.20;;;18.80;80.40;;;;;;5091354;28;20082;-39
2023/03/03 09:37:17;;;;;;;18.60;6.18;;;18.90;80.40;;;;;;5090708;28;20040;-38
2023/03/03 09:39:44;;;;;;;22.27;6.43;;;19.00;80.10;;;;;;5090126;28;20044;-39
2023/03/03 09:42:10;;;;;;;25.88;6.53;;;19.10;79.90;;;;;;5091561;28;20467;-39
2023/03/03 09:44:37;;;;;;;20.05;6.10;;;19.20;79.50;;;;;;5090085;28;20045;-38
2023/03/03 09:47:04;;;;;;;18.13;6.13;;;19.30;79.20;;;;;;5091003;28;20425;-38
2023/03/03 09:49:31;;;;;;;19.05;5.60;;;19.40;79.10;;;;;;5088666;28;20044;-38
2023/03/03 09:51:58;;;;;;;17.92;5.70;;;19.50;79.10;;;;;;5088089;28;20049;-38
2023/03/03 09:54:24;;;;;;;18.17;5.65;;;19.60;78.80;;;;;;5090820;28;20048;-40
2023/03/03 09:56:51;;;;;;;17.48;6.10;;;19.60;78.60;;;;;;5091367;28;20048;-39
2023/03/03 09:59:17;;;;;;;19.05;5.38;;;19.70;78.60;;;;;;5089396;28;20044;-38
2023/03/03 10:01:44;;;;;;;17.38;5.25;;;19.70;78.00;;;;;;5090659;28;20048;-37
2023/03/03 10:04:11;;;;;;;17.88;6.63;;;19.80;77.80;;;;;;5089918;28;20036;-39
2023/03/03 10:06:38;;;;;;;15.85;5.10;;;19.80;77.70;;;;;;5090738;28;20481;-38
2023/03/03 10:09:04;;;;;;;14.85;5.60;;;19.90;77.50;;;;;;5083602;28;20032;-40
2023/03/03 10:11:31;;;;;;;16.88;5.47;;;20.00;77.30;;;;;;5075811;28;20075;-40
2023/03/03 10:13:58;;;;;;;18.00;4.97;;;20.00;77.30;;;;;;5067024;28;20041;-42
2023/03/03 10:16:25;;;;;;;17.15;5.80;;;20.00;77.10;;;;;;5067222;28;20542;-42
2023/03/03 10:18:51;;;;;;;19.63;5.28;;;20.00;77.10;;;;;;5066127;28;20041;-41
2023/03/03 10:21:18;;;;;;;16.52;5.18;;;20.10;77.10;;;;;;5066657;28;20040;-40
2023/03/03 10:23:45;;;;;;;13.57;5.03;;;20.20;76.80;;;;;;5054174;28;20048;-39
2023/03/03 10:26:12;;;;;;;14.23;4.82;;;20.20;76.50;;;;;;5052387;28;20040;-39
2023/03/03 10:28:39;;;;;;;12.00;4.43;;;20.30;75.90;;;;;;5053246;28;20062;-39
2023/03/03 10:31:05;;;;;;;14.43;4.30;;;20.40;75.90;;;;;;5052613;28;20055;-39
2023/03/03 10:33:39;;;;;;;13.75;4.95;;;20.40;75.80;;;;;;5053806;28;20442;-39
2023/03/03 10:36:06;;;;;;;11.68;4.85;;;20.50;75.70;;;;;;5053552;28;20045;-39
2023/03/03 10:38:33;;;;;;;15.30;5.00;;;20.50;75.50;;;;;;5052032;28;20118;-40
2023/03/03 10:41:03;;;;;;;12.55;4.68;;;20.50;76.00;;;;;;5053436;28;20045;-39
2023/03/03 10:43:29;;;;;;;12.13;4.55;;;20.60;75.40;;;;;;5053548;28;20033;-38
2023/03/03 10:45:58;;;;;;;12.57;4.45;;;20.60;75.20;;;;;;5051953;28;20059;-38
2023/03/03 10:48:24;;;;;;;14.35;5.03;;;20.60;75.10;;;;;;5053288;28;20049;-38
2023/03/03 10:50:51;;;;;;;11.57;4.30;;;20.70;75.00;;;;;;5052027;28;20083;-39
2023/03/03 10:53:18;;;;;;;10.85;3.97;;;20.70;74.90;;;;;;5036081;28;20043;-39
2023/03/03 10:55:44;;;;;;;11.57;4.55;;;20.70;74.70;;;;;;5044668;28;20037;-39
2023/03/03 10:58:11;;;;;;;12.70;4.43;;;20.70;74.80;;;;;;5032071;28;20080;-39
2023/03/03 11:00:38;;;;;;;12.15;4.30;;;20.80;75.40;;;;;;5033764;28;20041;-39
2023/03/03 11:03:04;;;;;;;10.73;3.78;;;20.80;74.60;;;;;;5033055;28;20059;-39
2023/03/03 11:05:31;;;;;;;11.02;4.10;;;20.80;74.50;;;;;;5032545;28;20041;-39
2023/03/03 11:07:58;;;;;;;11.93;4.28;;;20.90;74.30;;;;;;5055635;28;20055;-39
2023/03/03 11:10:24;;;;;;;11.60;4.50;;;20.90;74.30;;;;;;5035619;28;20053;-40
2023/03/03 11:12:52;;;;;;;12.25;4.60;;;20.90;73.70;;;;;;5017610;28;20404;-39
2023/03/03 11:15:19;;;;;;;9.95;4.43;;;20.90;73.50;;;;;;5046312;28;20048;-43
2023/03/03 11:17:46;;;;;;;13.20;4.00;;;20.80;73.30;;;;;;5051629;28;20037;-42
2023/03/03 11:20:12;;;;;;;11.75;4.55;;;20.80;73.30;;;;;;5048056;28;20049;-41
2023/03/03 11:22:39;;;;;;;10.18;3.80;;;20.80;73.30;;;;;;5055800;28;20045;-40
2023/03/03 11:25:06;;;;;;;9.27;3.83;;;20.70;73.30;;;;;;5054801;28;20056;-40
2023/03/03 11:27:33;;;;;;;12.10;4.53;;;20.70;73.20;;;;;;5055396;28;20056;-39
2023/03/03 11:29:59;;;;;;;10.13;4.20;;;20.70;73.20;;;;;;5038608;28;20048;-39
2023/03/03 11:32:27;;;;;;;8.93;3.70;;;20.70;73.20;;;;;;5054568;28;20067;-39
2023/03/03 11:34:53;;;;;;;11.43;3.50;;;20.60;73.10;;;;;;5054708;28;20076;-39
2023/03/03 11:37:20;;;;;;;9.48;3.40;;;20.60;73.20;;;;;;5055249;28;20055;-39
2023/03/03 11:39:47;;;;;;;9.30;3.42;;;20.60;73.00;;;;;;5054063;28;20056;-39
2023/03/03 11:42:15;;;;;;;10.52;3.75;;;20.60;73.10;;;;;;5055522;28;20044;-39
2023/03/03 11:44:42;;;;;;;10.32;3.42;;;20.60;73.10;;;;;;5053536;28;20048;-39
2023/03/03 11:47:09;;;;;;;11.60;3.42;;;20.60;73.20;;;;;;5037168;28;20043;-39
2023/03/03 11:49:35;;;;;;;9.73;3.40;;;20.60;73.20;;;;;;5054614;28;20140;-39
2023/03/03 11:52:02;;;;;;;13.65;3.45;;;20.60;73.10;;;;;;5050422;28;20084;-39
2023/03/03 11:54:29;;;;;;;8.68;3.63;;;20.60;73.20;;;;;;5017583;28;20049;-39
2023/03/03 11:56:55;;;;;;;9.23;3.55;;;20.60;73.20;;;;;;5034697;28;20049;-38
2023/03/03 11:59:22;;;;;;;10.05;3.58;;;20.60;73.10;;;;;;5034282;28;20376;-39
2023/03/03 12:01:48;;;;;;;9.93;3.25;;;20.60;73.10;;;;;;5035367;28;20045;-39
2023/03/03 12:04:15;;;;;;;9.85;3.40;;;20.60;73.10;;;;;;5033456;28;20364;-39
2023/03/03 12:06:42;;;;;;;9.95;3.38;;;20.60;73.10;;;;;;5042842;28;20049;-38
2023/03/03 12:09:09;;;;;;;12.68;3.80;;;20.70;73.40;;;;;;5051755;28;20037;-38
2023/03/03 12:11:36;;;;;;;8.25;3.40;;;20.70;73.00;;;;;;5053006;28;20460;-38
2023/03/03 12:14:03;;;;;;;9.30;3.42;;;20.70;72.90;;;;;;5050550;28;20049;-40
2023/03/03 12:16:30;;;;;;;9.65;3.25;;;20.60;72.80;;;;;;5039108;28;20033;-39
2023/03/03 12:18:56;;;;;;;7.88;2.88;;;20.60;72.70;;;;;;5033157;28;20045;-39
2023/03/03 12:21:23;;;;;;;9.90;3.25;;;20.70;72.80;;;;;;5034401;28;20053;-39
2023/03/03 12:23:49;;;;;;;10.02;3.58;;;20.60;72.70;;;;;;5034049;28;20026;-39
2023/03/03 12:26:16;;;;;;;10.85;3.50;;;20.70;72.80;;;;;;5039580;28;20075;-41
2023/03/03 12:28:43;;;;;;;10.20;3.30;;;20.60;72.50;;;;;;5034818;28;20037;-41
2023/03/03 12:31:09;;;;;;;8.38;3.10;;;20.70;72.50;;;;;;5033355;28;20324;-39
2023/03/03 12:33:36;;;;;;;8.13;3.15;;;20.60;72.50;;;;;;5034224;28;20061;-38
2023/03/03 12:36:03;;;;;;;9.65;3.00;;;20.70;72.40;;;;;;5034549;28;20068;-39
2023/03/03 12:38:29;;;;;;;9.65;3.00;;;20.70;72.40;;;;;;5033643;28;20452;-39
2023/03/03 12:40:56;;;;;;;6.68;2.53;;;20.60;72.30;;;;;;5016781;28;20059;-39
2023/03/03 12:43:22;;;;;;;7.57;2.80;;;20.60;72.10;;;;;;5034592;28;20041;-39
2023/03/03 12:45:49;;;;;;;7.20;2.58;;;20.60;72.10;;;;;;5033204;28;20116;-39
2023/03/03 12:48:16;;;;;;;9.68;2.55;;;20.60;72.40;;;;;;5021575;28;20079;-38
2023/03/03 12:50:43;;;;;;;9.20;2.80;;;20.60;72.20;;;;;;5036934;28;20399;-39
2023/03/03 12:53:09;;;;;;;9.05;2.78;;;20.60;72.20;;;;;;5052706;28;20041;-39
2023/03/03 12:55:36;;;;;;;11.02;2.85;;;20.60;72.30;;;;;;5054106;28;20462;-38
2023/03/03 12:58:03;;;;;;;8.77;2.63;;;20.60;72.30;;;;;;5052786;28;20056;-39
2023/03/03 13:00:29;;;;;;;8.73;2.70;;;20.60;72.30;;;;;;5054042;28;20051;-38
2023/03/03 13:02:57;;;;;;;6.75;2.40;;;20.60;72.30;;;;;;5053529;28;20398;-40
2023/03/03 13:05:23;;;;;;;8.80;2.75;;;20.50;72.30;;;;;;5051442;28;20053;-38
2023/03/03 13:07:50;;;;;;;7.80;2.58;;;20.50;72.30;;;;;;5051238;28;20083;-39
2023/03/03 13:10:17;;;;;;;7.30;2.47;;;20.50;72.30;;;;;;5035039;28;20537;-39
2023/03/03 13:12:44;;;;;;;6.90;2.25;;;20.50;72.30;;;;;;5052878;28;20085;-39
2023/03/03 13:15:11;;;;;;;9.98;2.58;;;20.50;72.30;;;;;;5054136;28;20047;-39
2023/03/03 13:17:41;;;;;;;7.88;2.30;;;20.50;72.30;;;;;;5051825;28;20378;-38
2023/03/03 13:20:08;;;;;;;7.40;2.65;;;20.50;72.30;;;;;;5053887;28;20388;-39
2023/03/03 13:22:34;;;;;;;7.55;2.45;;;20.50;72.20;;;;;;5053655;28;20045;-40
2023/03/03 13:25:01;;;;;;;8.40;2.50;;;20.50;72.30;;;;;;5035139;28;20369;-39
2023/03/03 13:27:27;;;;;;;6.20;2.17;;;20.50;72.30;;;;;;5053405;28;20041;-39
2023/03/03 13:29:54;;;;;;;7.57;2.20;;;20.50;72.30;;;;;;5053673;28;20102;-41
2023/03/03 13:32:21;;;;;;;6.10;2.08;;;20.50;72.30;;;;;;5052364;28;20487;-39
2023/03/03 13:34:48;;;;;;;6.25;2.10;;;20.40;72.20;;;;;;5053653;28;20118;-38
2023/03/03 13:37:14;;;;;;;6.35;2.20;;;20.40;72.20;;;;;;5054027;28;20370;-39
2023/03/03 13:39:41;;;;;;;8.57;2.00;;;20.40;72.20;;;;;;5051889;28;20052;-38
2023/03/03 13:42:08;;;;;;;6.10;1.95;;;20.40;72.20;;;;;;5053521;28;20107;-39
2023/03/03 13:44:34;;;;;;;6.18;2.03;;;20.40;72.20;;;;;;5052675;28;20063;-39
2023/03/03 13:47:01;;;;;;;6.18;2.15;;;20.40;72.20;;;;;;5052768;28;20041;-39
2023/03/03 13:49:27;;;;;;;6.43;2.13;;;20.40;72.20;;;;;;5036387;28;20041;-39
2023/03/03 13:51:54;;;;;;;5.88;2.00;;;20.40;72.20;;;;;;5032807;28;20069;-40
2023/03/03 13:54:21;;;;;;;5.90;1.90;;;20.40;72.10;;;;;;5033145;28;20049;-40
2023/03/03 13:56:47;;;;;;;5.75;1.90;;;20.40;72.20;;;;;;5033636;28;20049;-39
2023/03/03 13:59:14;;;;;;;4.70;1.75;;;20.40;72.20;;;;;;5035424;28;20053;-39
2023/03/03 14:01:40;;;;;;;5.32;1.67;;;20.40;72.20;;;;;;5037532;28;20064;-39
2023/03/03 14:04:07;;;;;;;5.45;1.98;;;20.50;72.30;;;;;;5036877;28;20053;-39
2023/03/03 14:06:34;;;;;;;5.60;1.70;;;20.50;72.20;;;;;;5036078;28;20042;-40
2023/03/03 14:09:04;;;;;;;5.13;1.80;;;20.50;72.30;;;;;;5020179;28;20050;-39
2023/03/03 14:11:31;;;;;;;5.13;1.60;;;20.50;72.30;;;;;;5045562;28;20067;-38
2023/03/03 14:13:57;;;;;;;7.97;1.90;;;20.50;72.30;;;;;;5057271;28;20475;-40
2023/03/03 14:16:24;;;;;;;6.70;2.10;;;20.60;72.60;;;;;;5056831;28;20047;-39
2023/03/03 14:18:51;;;;;;;5.38;1.80;;;20.60;73.40;;;;;;5054280;28;20072;-39
2023/03/03 14:21:17;;;;;;;4.85;1.50;;;20.70;72.80;;;;;;4999465;28;20041;-38
2023/03/03 14:23:44;;;;;;;5.18;1.70;;;20.70;72.70;;;;;;5029340;28;20072;-37
2023/03/03 14:26:11;;;;;;;5.32;1.85;;;20.80;72.70;;;;;;5015734;28;20173;-39
2023/03/03 14:28:37;;;;;;;5.43;1.60;;;20.80;72.70;;;;;;5016851;28;20058;-39
2023/03/03 14:31:04;;;;;;;4.57;1.73;;;20.90;72.70;;;;;;5015625;28;20046;-38
2023/03/03 14:33:31;;;;;;;4.80;1.50;;;21.00;72.60;;;;;;5009989;28;20042;-39
2023/03/03 14:35:58;;;;;;;5.57;1.60;;;21.00;72.20;;;;;;5023098;28;20074;-38
2023/03/03 14:38:25;;;;;;;7.28;1.60;;;20.90;72.20;;;;;;5016121;28;20041;-38
2023/03/03 14:40:51;;;;;;;3.92;1.30;;;21.00;72.00;;;;;;5036697;28;20056;-39
2023/03/03 14:43:18;;;;;;;5.07;1.45;;;20.90;71.90;;;;;;5022250;28;20056;-39
2023/03/03 14:45:45;;;;;;;5.47;1.98;;;20.90;72.00;;;;;;5015490;28;20042;-39
2023/03/03 14:48:12;;;;;;;4.30;1.50;;;20.90;71.80;;;;;;5022322;28;20121;-40
2023/03/03 14:50:38;;;;;;;4.55;1.40;;;20.90;72.00;;;;;;5036856;28;20108;-39
2023/03/03 14:53:05;;;;;;;4.43;1.50;;;20.90;72.10;;;;;;5035562;28;20041;-39
2023/03/03 14:55:32;;;;;;;4.57;1.52;;;20.90;72.10;;;;;;5035985;28;20045;-39
2023/03/03 14:57:59;;;;;;;4.75;1.50;;;20.90;72.10;;;;;;5035266;28;20053;-39
2023/03/03 15:00:26;;;;;;;11.43;1.73;;;20.90;72.70;;;;;;5036379;28;20060;-39
2023/03/03 15:02:52;;;;;;;4.60;1.30;;;20.90;72.00;;;;;;5035850;28;20041;-39
2023/03/03 15:05:19;;;;;;;3.20;1.30;;;21.00;72.00;;;;;;5035586;28;20038;-39
2023/03/03 15:07:45;;;;;;;4.47;1.38;;;21.00;72.00;;;;;;5035854;28;20049;-40
2023/03/03 15:10:13;;;;;;;4.93;1.40;;;21.00;71.90;;;;;;5035830;28;20412;-39
2023/03/03 15:12:40;;;;;;;3.28;1.30;;;21.00;71.80;;;;;;5035026;28;20063;-39
2023/03/03 15:15:07;;;;;;;7.07;1.70;;;21.00;71.80;;;;;;5036288;28;20045;-39
2023/03/03 15:17:37;;;;;;;3.80;1.30;;;21.00;71.80;;;;;;5034653;28;20045;-38
2023/03/03 15:20:04;;;;;;;5.38;1.30;;;21.00;71.80;;;;;;5035928;28;20053;-38
2023/03/03 15:22:32;;;;;;;3.80;1.20;;;21.10;71.80;;;;;;5036043;28;20128;-38
2023/03/03 15:24:59;;;;;;;3.83;1.20;;;21.10;71.80;;;;;;5034700;28;20049;-38
2023/03/03 15:27:26;;;;;;;3.08;1.38;;;21.10;71.80;;;;;;5024552;28;20048;-38
2023/03/03 15:29:53;;;;;;;3.97;1.20;;;21.10;72.30;;;;;;5015392;28;20453;-39
2023/03/03 15:32:19;;;;;;;3.53;1.30;;;21.10;71.60;;;;;;5013857;28;20125;-38
2023/03/03 15:34:47;;;;;;;3.03;1.25;;;21.10;72.30;;;;;;5015169;28;20049;-39
2023/03/03 15:37:14;;;;;;;4.25;1.20;;;21.20;71.60;;;;;;5015630;28;20058;-39
2023/03/03 15:39:41;;;;;;;3.67;1.23;;;21.10;71.50;;;;;;5014448;28;20046;-39
2023/03/03 15:42:07;;;;;;;5.72;1.50;;;21.10;71.50;;;;;;5014707;28;20397;-39
2023/03/03 15:44:34;;;;;;;3.55;1.10;;;21.10;71.50;;;;;;5014501;28;20044;-39
2023/03/03 15:47:02;;;;;;;4.57;1.33;;;21.00;71.40;;;;;;5015109;28;20037;-39
2023/03/03 15:49:28;;;;;;;3.15;1.20;;;21.00;71.50;;;;;;5015002;28;20045;-39
2023/03/03 15:51:55;;;;;;;2.78;1.10;;;21.00;71.60;;;;;;5014599;28;20369;-38
2023/03/03 15:54:28;;;;;;;3.25;1.10;;;21.00;71.60;;;;;;5014954;28;20100;-38
2023/03/03 15:56:55;;;;;;;3.75;1.20;;;21.00;71.60;;;;;;5015402;28;20049;-39
2023/03/03 15:59:24;;;;;;;3.78;1.15;;;21.00;71.70;;;;;;5013922;28;20371;-37
2023/03/03 16:01:50;;;;;;;5.72;1.23;;;21.00;71.70;;;;;;5014750;28;20034;-38
2023/03/03 16:04:17;;;;;;;3.85;1.30;;;21.10;71.90;;;;;;5014091;28;20053;-38
2023/03/03 16:06:44;;;;;;;3.03;1.00;;;21.10;71.90;;;;;;5015156;28;20030;-39
2023/03/03 16:09:10;;;;;;;3.95;1.30;;;21.20;72.00;;;;;;5014202;28;20042;-38
2023/03/03 16:11:37;;;;;;;4.30;1.17;;;21.30;72.00;;;;;;5014106;28;20069;-37
2023/03/03 16:14:04;;;;;;;3.63;1.00;;;21.30;71.90;;;;;;5015038;28;20041;-38
2023/03/03 16:16:31;;;;;;;3.53;1.08;;;21.40;72.00;;;;;;5017467;28;20041;-39
2023/03/03 16:18:57;;;;;;;4.13;1.10;;;21.40;71.90;;;;;;5013702;28;20055;-38
2023/03/03 16:21:24;;;;;;;3.00;1.02;;;21.40;71.90;;;;;;5014090;28;20049;-38
2023/03/03 16:23:51;;;;;;;2.90;1.00;;;21.50;71.80;;;;;;5014526;28;20042;-38
2023/03/03 16:26:18;;;;;;;3.17;1.10;;;21.50;71.80;;;;;;5013799;28;20048;-38
2023/03/03 16:28:44;;;;;;;2.65;1.10;;;21.50;71.80;;;;;;5032031;28;20041;-38
2023/03/03 16:31:11;;;;;;;3.80;1.00;;;21.50;71.80;;;;;;5032077;28;20072;-39
2023/03/03 16:33:42;;;;;;;3.25;1.00;;;21.50;71.70;;;;;;5015759;28;20045;-40
2023/03/03 16:36:09;;;;;;;3.78;1.10;;;21.50;71.80;;;;;;5030969;28;20080;-39
2023/03/03 16:38:36;;;;;;;3.03;1.08;;;21.50;71.80;;;;;;5022884;28;20042;-39
2023/03/03 16:41:02;;;;;;;4.65;1.20;;;21.50;71.80;;;;;;5014510;28;20060;-39
2023/03/03 16:43:29;;;;;;;3.42;1.00;;;21.50;71.70;;;;;;5014489;28;20038;-39
2023/03/03 16:45:56;;;;;;;4.30;1.10;;;21.50;71.70;;;;;;5028491;28;20113;-39
2023/03/03 16:48:22;;;;;;;1.95;0.88;;;21.50;71.70;;;;;;5033577;28;20045;-38
2023/03/03 16:50:49;;;;;;;3.15;1.05;;;21.50;71.60;;;;;;5033519;28;20034;-38
2023/03/03 16:53:16;;;;;;;2.65;1.00;;;21.50;71.60;;;;;;5033121;28;20120;-39
2023/03/03 16:55:42;;;;;;;3.22;1.00;;;21.50;71.60;;;;;;5033554;28;20549;-39
2023/03/03 16:58:09;;;;;;;3.75;1.10;;;21.60;71.70;;;;;;5032265;28;20037;-38
2023/03/03 17:00:36;;;;;;;1.85;0.93;;;21.60;71.70;;;;;;5033360;28;20045;-39
2023/03/03 17:03:03;;;;;;;2.45;0.93;;;21.60;71.60;;;;;;5033211;28;20042;-38
2023/03/03 17:05:29;;;;;;;3.03;1.10;;;21.60;71.60;;;;;;5017493;28;20125;-39
2023/03/03 17:07:56;;;;;;;2.42;1.00;;;21.60;71.60;;;;;;5013477;28;20112;-39
2023/03/03 17:10:23;;;;;;;2.15;1.00;;;21.60;71.60;;;;;;5013817;28;20065;-38
2023/03/03 17:12:49;;;;;;;2.72;0.93;;;21.60;71.50;;;;;;5026124;28;20424;-39
2023/03/03 17:15:16;;;;;;;2.25;0.95;;;21.70;71.60;;;;;;5014226;28;20057;-47
2023/03/03 17:17:43;;;;;;;2.25;1.00;;;21.70;71.60;;;;;;5012167;28;20576;-38
2023/03/03 17:20:09;;;;;;;3.53;1.00;;;21.70;71.40;;;;;;5012446;28;20546;-39
2023/03/03 17:22:36;;;;;;;3.15;1.10;;;21.70;71.50;;;;;;5011923;28;20053;-38
2023/03/03 17:25:03;;;;;;;2.42;0.98;;;21.70;71.50;;;;;;5011495;28;20457;-40
2023/03/03 17:27:30;;;;;;;1.90;0.90;;;21.70;71.40;;;;;;5012097;28;20787;-39
2023/03/03 17:29:56;;;;;;;2.88;1.10;;;21.70;71.40;;;;;;5010558;28;20052;-39
2023/03/03 17:32:23;;;;;;;2.30;1.00;;;21.70;71.40;;;;;;5011437;28;20050;-39
2023/03/03 17:34:50;;;;;;;2.35;0.90;;;21.80;71.40;;;;;;5021865;28;20149;-39
2023/03/03 17:37:16;;;;;;;2.58;0.95;;;21.80;71.40;;;;;;5035676;28;20049;-39
2023/03/03 17:39:43;;;;;;;2.70;0.90;;;21.80;71.40;;;;;;5034821;28;20045;-40
2023/03/03 17:42:09;;;;;;;2.38;1.00;;;21.80;71.40;;;;;;5035732;28;20387;-39
2023/03/03 17:44:36;;;;;;;2.65;1.00;;;21.80;71.40;;;;;;5034382;28;20045;-39
2023/03/03 17:47:03;;;;;;;3.08;1.15;;;21.80;71.40;;;;;;5035742;28;20048;-38
2023/03/03 17:49:29;;;;;;;3.28;1.02;;;21.80;71.40;;;;;;5035443;28;20076;-39
2023/03/03 17:51:56;;;;;;;2.72;0.90;;;21.80;71.30;;;;;;5030538;28;20071;-39
2023/03/03 17:54:23;;;;;;;3.40;1.13;;;21.80;71.30;;;;;;5015338;28;20041;-39
2023/03/03 17:56:50;;;;;;;2.83;1.17;;;21.80;71.30;;;;;;5015230;28;20042;-40
2023/03/03 17:59:16;;;;;;;2.75;1.20;;;21.80;71.20;;;;;;5013976;28;20404;-39
2023/03/03 18:01:43;;;;;;;2.42;0.98;;;21.80;71.30;;;;;;5015307;28;20073;-39
2023/03/03 18:04:09;;;;;;;3.47;1.10;;;21.80;71.30;;;;;;5015130;28;20038;-38
2023/03/03 18:06:37;;;;;;;3.22;1.08;;;21.80;71.40;;;;;;5014648;28;20041;-38
2023/03/03 18:09:03;;;;;;;3.72;1.02;;;21.80;71.10;;;;;;5014915;28;20114;-39
2023/03/03 18:11:39;;;;;;;2.88;1.02;;;21.80;71.00;;;;;;5016894;28;20050;-38
